SBKP

Viracopos International Airport

Campinas, Brazil
TAF SBKP 221616Z 2218/2318 12012KT CAVOK TN14/2308Z TX28/2317Z BECMG 2312/2314 06005KT BECMG 2314/2316 35005KT RMK PGQ
Issued Valid From Valid To
Jul-22 @ 16:16 UTC
(4 hours ago)
Jul-22 @ 18:00 UTC
(2 hours ago)
Jul-23 @ 18:00 UTC
(in 22 hours)
Jul-22 @ 18:00 to Jul-23 @ 12:00
TAF SBKP 221616Z 2218/2318 12012KT CAVOK TN14/2308Z TX28/2317Z
Wind Visibility Clouds
120° at 12 knots 10,000+ meters
  • No significant clouds
Becoming Jul-23 @ 12:00 to Jul-23 @ 14:00
BECMG 2312/2314 06005KT
Wind Visibility Clouds
60° at 5 knots 10,000+ meters
  • No significant clouds
Becoming Jul-23 @ 14:00 to Jul-23 @ 18:00
BECMG 2314/2316 35005KT RMK PGQ
Wind Visibility Clouds
350° at 5 knots 10,000+ meters
  • No significant clouds
TAF SBKP 221616Z 2218/2318 12012KT CAVOK TN14/2308Z TX28/2317Z BECMG 2312/2314 06005KT BECMG 2314/2316 35005KT RMK PGQ
Issued Jul-22 @ 16:16 UTC
(4 hours ago)
Valid From Jul-22 @ 18:00 UTC
(2 hours ago)
Valid To Jul-23 @ 18:00 UTC
(in 22 hours)
Jul-22 @ 18:00 - Jul-23 @ 12:00
Wind Visibility
120° at 12 knots 10,000+ meters
Clouds
  • No significant clouds
Becoming Jul-23 @ 12:00 - Jul-23 @ 14:00
Wind Visibility
60° at 5 knots 10,000+ meters
Clouds
  • No significant clouds
Becoming Jul-23 @ 14:00 - Jul-23 @ 18:00
Wind Visibility
350° at 5 knots 10,000+ meters
Clouds
  • No significant clouds